LFCK/DCM METAR and TAF weather

Enter ICAO airport designator
Station Type Date Time Source
LFCK METAR 2019/05/25 15:00 UTC NOAA

LFCK 251500Z AUTO 17003KT 9000 FEW038/// SCT048/// BKN056/// ///CB 16/15 Q1019 TEMPO 4000 SHRA BECMG 29010KT


Station Type Date Time Source
LFCK Decoded METAR 2019/05/25 15:00 UTC NOAA

Station name not available
May 25, 2019 - 11:00 AM EDT / 2019.05.25 1500 UTC
Wind: from the S (170 degrees) at 3 MPH (3 KT):0
Visibility: 5 mile(s):0
Sky conditions: mostly cloudy
Weather: Cumulonimbus clouds observed
Temperature: 60 F (16 C)
Dew Point: 59 F (15 C)
Relative Humidity: 93%
Pressure (altimeter): 30.09 in. Hg (1019 hPa)
ob: LFCK 251500Z AUTO 17003KT 9000 FEW038/// SCT048/// BKN056/// ///CB 16/15 Q1019 TEMPO 4000 SHRA BECMG 29010KT
cycle: 15

Station Type Date Time Source
LFCK TAF UTC NOAA

Error!

Example: see airport list